sensor_id;sensor_type;location;lat;lon;timestamp;P1;durP1;ratioP1;P2;durP2;ratioP2
20649;SDS011;10484;48.736;9.332;2023-04-25T00:01:39;2.10;;;1.60;;
20649;SDS011;10484;48.736;9.332;2023-04-25T00:04:05;2.90;;;1.83;;
20649;SDS011;10484;48.736;9.332;2023-04-25T00:06:31;2.07;;;1.87;;
20649;SDS011;10484;48.736;9.332;2023-04-25T00:08:57;3.67;;;2.40;;
20649;SDS011;10484;48.736;9.332;2023-04-25T00:11:23;2.37;;;2.10;;
20649;SDS011;10484;48.736;9.332;2023-04-25T00:13:49;2.30;;;2.10;;
20649;SDS011;10484;48.736;9.332;2023-04-25T00:16:19;3.20;;;1.87;;
20649;SDS011;10484;48.736;9.332;2023-04-25T00:18:44;3.90;;;1.93;;
20649;SDS011;10484;48.736;9.332;2023-04-25T00:21:16;2.37;;;2.07;;
20649;SDS011;10484;48.736;9.332;2023-04-25T00:23:43;2.70;;;2.13;;
20649;SDS011;10484;48.736;9.332;2023-04-25T00:26:08;2.43;;;1.80;;
20649;SDS011;10484;48.736;9.332;2023-04-25T00:28:34;2.47;;;1.90;;
20649;SDS011;10484;48.736;9.332;2023-04-25T00:30:59;4.00;;;2.07;;
20649;SDS011;10484;48.736;9.332;2023-04-25T00:33:25;2.90;;;1.87;;
20649;SDS011;10484;48.736;9.332;2023-04-25T00:35:50;2.27;;;2.10;;
20649;SDS011;10484;48.736;9.332;2023-04-25T00:38:16;2.73;;;1.90;;
20649;SDS011;10484;48.736;9.332;2023-04-25T00:40:42;1.60;;;1.50;;
20649;SDS011;10484;48.736;9.332;2023-04-25T00:43:08;5.57;;;2.57;;
20649;SDS011;10484;48.736;9.332;2023-04-25T00:45:34;2.50;;;2.27;;
20649;SDS011;10484;48.736;9.332;2023-04-25T00:48:04;2.70;;;1.87;;
20649;SDS011;10484;48.736;9.332;2023-04-25T00:50:30;1.53;;;1.43;;
20649;SDS011;10484;48.736;9.332;2023-04-25T00:52:58;2.43;;;1.90;;
20649;SDS011;10484;48.736;9.332;2023-04-25T00:55:25;3.50;;;1.80;;
20649;SDS011;10484;48.736;9.332;2023-04-25T00:57:51;2.37;;;2.00;;
20649;SDS011;10484;48.736;9.332;2023-04-25T01:00:16;2.80;;;1.77;;
20649;SDS011;10484;48.736;9.332;2023-04-25T01:02:43;2.10;;;1.90;;
20649;SDS011;10484;48.736;9.332;2023-04-25T01:05:09;2.93;;;1.80;;
20649;SDS011;10484;48.736;9.332;2023-04-25T01:07:35;3.47;;;2.03;;
20649;SDS011;10484;48.736;9.332;2023-04-25T01:10:01;2.10;;;1.90;;
20649;SDS011;10484;48.736;9.332;2023-04-25T01:12:27;7.27;;;1.80;;
20649;SDS011;10484;48.736;9.332;2023-04-25T01:14:53;4.50;;;2.53;;
20649;SDS011;10484;48.736;9.332;2023-04-25T01:17:19;2.33;;;2.07;;
20649;SDS011;10484;48.736;9.332;2023-04-25T01:19:45;2.20;;;1.90;;
20649;SDS011;10484;48.736;9.332;2023-04-25T01:22:14;2.47;;;1.80;;
20649;SDS011;10484;48.736;9.332;2023-04-25T01:24:40;2.97;;;2.63;;
20649;SDS011;10484;48.736;9.332;2023-04-25T01:27:06;5.10;;;2.63;;
20649;SDS011;10484;48.736;9.332;2023-04-25T01:29:32;2.70;;;2.47;;
20649;SDS011;10484;48.736;9.332;2023-04-25T01:31:59;2.83;;;2.17;;
20649;SDS011;10484;48.736;9.332;2023-04-25T01:34:26;4.10;;;2.50;;
20649;SDS011;10484;48.736;9.332;2023-04-25T01:36:51;2.60;;;2.40;;
20649;SDS011;10484;48.736;9.332;2023-04-25T01:39:18;2.50;;;2.13;;
20649;SDS011;10484;48.736;9.332;2023-04-25T01:41:45;3.67;;;2.57;;
20649;SDS011;10484;48.736;9.332;2023-04-25T01:44:11;2.33;;;2.13;;
20649;SDS011;10484;48.736;9.332;2023-04-25T01:46:37;3.10;;;2.27;;
20649;SDS011;10484;48.736;9.332;2023-04-25T01:49:03;2.33;;;2.13;;
20649;SDS011;10484;48.736;9.332;2023-04-25T01:51:28;3.40;;;2.30;;
20649;SDS011;10484;48.736;9.332;2023-04-25T01:53:54;2.70;;;2.03;;
20649;SDS011;10484;48.736;9.332;2023-04-25T01:56:21;2.90;;;2.70;;
20649;SDS011;10484;48.736;9.332;2023-04-25T01:58:47;3.57;;;2.10;;
20649;SDS011;10484;48.736;9.332;2023-04-25T02:01:12;3.00;;;2.70;;
20649;SDS011;10484;48.736;9.332;2023-04-25T02:03:38;3.40;;;2.40;;
20649;SDS011;10484;48.736;9.332;2023-04-25T02:06:03;2.60;;;2.40;;
20649;SDS011;10484;48.736;9.332;2023-04-25T02:08:29;2.73;;;2.10;;
20649;SDS011;10484;48.736;9.332;2023-04-25T02:10:56;4.47;;;3.07;;
20649;SDS011;10484;48.736;9.332;2023-04-25T02:13:22;2.90;;;2.47;;
20649;SDS011;10484;48.736;9.332;2023-04-25T02:15:47;2.60;;;2.40;;
20649;SDS011;10484;48.736;9.332;2023-04-25T02:18:13;2.67;;;2.37;;
20649;SDS011;10484;48.736;9.332;2023-04-25T02:20:41;2.73;;;2.30;;
20649;SDS011;10484;48.736;9.332;2023-04-25T02:23:06;2.60;;;2.30;;
20649;SDS011;10484;48.736;9.332;2023-04-25T02:25:32;2.90;;;2.60;;
20649;SDS011;10484;48.736;9.332;2023-04-25T02:27:58;3.70;;;2.47;;
20649;SDS011;10484;48.736;9.332;2023-04-25T02:30:23;2.43;;;2.23;;
20649;SDS011;10484;48.736;9.332;2023-04-25T02:32:49;3.17;;;2.43;;
20649;SDS011;10484;48.736;9.332;2023-04-25T02:35:14;4.13;;;2.30;;
20649;SDS011;10484;48.736;9.332;2023-04-25T02:37:40;2.90;;;2.47;;
20649;SDS011;10484;48.736;9.332;2023-04-25T02:40:07;3.20;;;2.63;;
20649;SDS011;10484;48.736;9.332;2023-04-25T02:42:33;3.13;;;2.50;;
20649;SDS011;10484;48.736;9.332;2023-04-25T02:44:59;2.70;;;2.50;;
20649;SDS011;10484;48.736;9.332;2023-04-25T02:47:24;4.27;;;2.20;;
20649;SDS011;10484;48.736;9.332;2023-04-25T02:49:50;4.00;;;2.53;;
20649;SDS011;10484;48.736;9.332;2023-04-25T02:52:16;4.40;;;2.33;;
20649;SDS011;10484;48.736;9.332;2023-04-25T02:54:41;2.60;;;2.40;;
20649;SDS011;10484;48.736;9.332;2023-04-25T02:57:07;3.33;;;2.60;;
20649;SDS011;10484;48.736;9.332;2023-04-25T02:59:33;2.47;;;2.07;;
20649;SDS011;10484;48.736;9.332;2023-04-25T03:01:58;3.33;;;2.10;;
20649;SDS011;10484;48.736;9.332;2023-04-25T03:04:24;3.07;;;2.53;;
20649;SDS011;10484;48.736;9.332;2023-04-25T03:06:50;2.33;;;2.10;;
20649;SDS011;10484;48.736;9.332;2023-04-25T03:09:16;2.60;;;2.33;;
20649;SDS011;10484;48.736;9.332;2023-04-25T03:11:42;2.00;;;1.80;;
20649;SDS011;10484;48.736;9.332;2023-04-25T03:14:08;2.53;;;2.00;;
20649;SDS011;10484;48.736;9.332;2023-04-25T03:16:34;5.43;;;2.20;;
20649;SDS011;10484;48.736;9.332;2023-04-25T03:18:59;2.30;;;2.00;;
20649;SDS011;10484;48.736;9.332;2023-04-25T03:21:25;3.30;;;1.90;;
20649;SDS011;10484;48.736;9.332;2023-04-25T03:23:51;2.40;;;1.87;;
20649;SDS011;10484;48.736;9.332;2023-04-25T03:26:17;2.87;;;2.07;;
20649;SDS011;10484;48.736;9.332;2023-04-25T03:28:42;5.33;;;2.10;;
20649;SDS011;10484;48.736;9.332;2023-04-25T03:31:08;3.13;;;1.97;;
20649;SDS011;10484;48.736;9.332;2023-04-25T03:33:33;3.03;;;2.73;;
20649;SDS011;10484;48.736;9.332;2023-04-25T03:35:59;2.00;;;1.70;;
20649;SDS011;10484;48.736;9.332;2023-04-25T03:38:24;2.20;;;2.00;;
20649;SDS011;10484;48.736;9.332;2023-04-25T03:40:51;3.97;;;1.87;;
20649;SDS011;10484;48.736;9.332;2023-04-25T03:43:16;2.33;;;2.13;;
20649;SDS011;10484;48.736;9.332;2023-04-25T03:45:42;2.43;;;1.50;;
20649;SDS011;10484;48.736;9.332;2023-04-25T03:48:08;1.93;;;1.70;;
20649;SDS011;10484;48.736;9.332;2023-04-25T03:50:33;3.07;;;1.57;;
20649;SDS011;10484;48.736;9.332;2023-04-25T03:52:59;2.83;;;2.03;;
20649;SDS011;10484;48.736;9.332;2023-04-25T03:55:25;4.40;;;2.53;;
20649;SDS011;10484;48.736;9.332;2023-04-25T03:57:50;2.07;;;1.77;;
20649;SDS011;10484;48.736;9.332;2023-04-25T04:00:16;2.37;;;2.17;;
20649;SDS011;10484;48.736;9.332;2023-04-25T04:02:42;2.67;;;1.80;;
20649;SDS011;10484;48.736;9.332;2023-04-25T04:05:07;1.90;;;1.33;;
20649;SDS011;10484;48.736;9.332;2023-04-25T04:07:34;2.00;;;1.87;;
20649;SDS011;10484;48.736;9.332;2023-04-25T04:10:04;1.80;;;1.70;;
20649;SDS011;10484;48.736;9.332;2023-04-25T04:12:33;7.77;;;2.50;;
20649;SDS011;10484;48.736;9.332;2023-04-25T04:14:59;1.97;;;1.87;;
20649;SDS011;10484;48.736;9.332;2023-04-25T04:17:25;4.77;;;2.43;;
20649;SDS011;10484;48.736;9.332;2023-04-25T04:19:50;2.57;;;1.90;;
20649;SDS011;10484;48.736;9.332;2023-04-25T04:22:16;2.40;;;2.20;;
20649;SDS011;10484;48.736;9.332;2023-04-25T04:24:41;3.03;;;2.50;;
20649;SDS011;10484;48.736;9.332;2023-04-25T04:27:09;5.43;;;2.10;;
20649;SDS011;10484;48.736;9.332;2023-04-25T04:29:35;2.70;;;1.70;;
20649;SDS011;10484;48.736;9.332;2023-04-25T04:32:01;2.20;;;2.00;;
20649;SDS011;10484;48.736;9.332;2023-04-25T04:34:28;3.30;;;2.10;;
20649;SDS011;10484;48.736;9.332;2023-04-25T04:36:54;2.30;;;2.03;;
20649;SDS011;10484;48.736;9.332;2023-04-25T04:39:19;2.20;;;1.93;;
20649;SDS011;10484;48.736;9.332;2023-04-25T04:41:46;3.40;;;2.00;;
20649;SDS011;10484;48.736;9.332;2023-04-25T04:44:11;4.43;;;2.03;;
20649;SDS011;10484;48.736;9.332;2023-04-25T04:46:37;2.80;;;1.93;;
20649;SDS011;10484;48.736;9.332;2023-04-25T04:49:05;4.00;;;1.87;;
20649;SDS011;10484;48.736;9.332;2023-04-25T04:51:31;3.40;;;2.47;;
20649;SDS011;10484;48.736;9.332;2023-04-25T04:53:57;2.30;;;2.10;;
20649;SDS011;10484;48.736;9.332;2023-04-25T04:56:27;2.73;;;2.20;;
20649;SDS011;10484;48.736;9.332;2023-04-25T04:58:57;2.20;;;2.00;;
20649;SDS011;10484;48.736;9.332;2023-04-25T05:01:23;2.10;;;1.90;;
20649;SDS011;10484;48.736;9.332;2023-04-25T05:03:48;3.70;;;2.30;;
20649;SDS011;10484;48.736;9.332;2023-04-25T05:06:14;3.83;;;2.13;;
20649;SDS011;10484;48.736;9.332;2023-04-25T05:08:41;2.20;;;2.00;;
20649;SDS011;10484;48.736;9.332;2023-04-25T05:11:07;2.37;;;2.13;;
20649;SDS011;10484;48.736;9.332;2023-04-25T05:13:32;3.80;;;2.13;;
20649;SDS011;10484;48.736;9.332;2023-04-25T05:15:58;3.13;;;2.20;;
20649;SDS011;10484;48.736;9.332;2023-04-25T05:18:23;5.80;;;2.43;;
20649;SDS011;10484;48.736;9.332;2023-04-25T05:20:49;3.73;;;2.27;;
20649;SDS011;10484;48.736;9.332;2023-04-25T05:23:14;3.10;;;2.27;;
20649;SDS011;10484;48.736;9.332;2023-04-25T05:25:41;10.63;;;2.60;;
20649;SDS011;10484;48.736;9.332;2023-04-25T05:28:06;3.90;;;2.20;;
20649;SDS011;10484;48.736;9.332;2023-04-25T05:30:32;3.00;;;2.10;;
20649;SDS011;10484;48.736;9.332;2023-04-25T05:32:59;4.93;;;2.80;;
20649;SDS011;10484;48.736;9.332;2023-04-25T05:35:25;3.63;;;2.73;;
20649;SDS011;10484;48.736;9.332;2023-04-25T05:37:51;2.97;;;2.37;;
20649;SDS011;10484;48.736;9.332;2023-04-25T05:40:16;2.53;;;2.33;;
20649;SDS011;10484;48.736;9.332;2023-04-25T05:42:42;3.70;;;2.80;;
20649;SDS011;10484;48.736;9.332;2023-04-25T05:45:07;3.27;;;2.67;;
20649;SDS011;10484;48.736;9.332;2023-04-25T05:47:33;3.90;;;3.13;;
20649;SDS011;10484;48.736;9.332;2023-04-25T05:49:59;4.20;;;3.20;;
20649;SDS011;10484;48.736;9.332;2023-04-25T05:52:25;6.20;;;2.47;;
20649;SDS011;10484;48.736;9.332;2023-04-25T05:54:50;2.80;;;2.10;;
20649;SDS011;10484;48.736;9.332;2023-04-25T05:57:26;3.37;;;2.70;;
20649;SDS011;10484;48.736;9.332;2023-04-25T05:59:52;3.80;;;2.90;;
20649;SDS011;10484;48.736;9.332;2023-04-25T06:02:18;2.87;;;2.30;;
20649;SDS011;10484;48.736;9.332;2023-04-25T06:04:45;5.53;;;2.70;;
20649;SDS011;10484;48.736;9.332;2023-04-25T06:07:11;3.07;;;2.63;;
20649;SDS011;10484;48.736;9.332;2023-04-25T06:09:36;3.20;;;2.60;;
20649;SDS011;10484;48.736;9.332;2023-04-25T06:12:03;4.70;;;2.97;;
20649;SDS011;10484;48.736;9.332;2023-04-25T06:14:29;3.00;;;2.60;;
20649;SDS011;10484;48.736;9.332;2023-04-25T06:16:55;2.27;;;1.90;;
20649;SDS011;10484;48.736;9.332;2023-04-25T06:19:21;1.73;;;1.63;;
20649;SDS011;10484;48.736;9.332;2023-04-25T06:21:46;2.43;;;2.10;;
20649;SDS011;10484;48.736;9.332;2023-04-25T06:24:12;2.70;;;2.00;;
20649;SDS011;10484;48.736;9.332;2023-04-25T06:26:38;1.87;;;1.67;;
20649;SDS011;10484;48.736;9.332;2023-04-25T06:29:03;2.30;;;2.10;;
20649;SDS011;10484;48.736;9.332;2023-04-25T06:31:29;2.80;;;1.73;;
20649;SDS011;10484;48.736;9.332;2023-04-25T06:33:57;1.77;;;1.50;;
20649;SDS011;10484;48.736;9.332;2023-04-25T06:36:23;1.70;;;1.13;;
20649;SDS011;10484;48.736;9.332;2023-04-25T06:38:53;2.07;;;1.40;;
20649;SDS011;10484;48.736;9.332;2023-04-25T06:41:19;5.40;;;1.90;;
20649;SDS011;10484;48.736;9.332;2023-04-25T06:43:45;2.10;;;1.87;;
20649;SDS011;10484;48.736;9.332;2023-04-25T06:46:11;3.40;;;2.17;;
20649;SDS011;10484;48.736;9.332;2023-04-25T06:48:37;1.90;;;1.73;;
20649;SDS011;10484;48.736;9.332;2023-04-25T06:51:02;2.13;;;1.87;;
20649;SDS011;10484;48.736;9.332;2023-04-25T06:53:28;1.97;;;1.83;;
20649;SDS011;10484;48.736;9.332;2023-04-25T06:55:54;2.80;;;1.87;;
20649;SDS011;10484;48.736;9.332;2023-04-25T06:58:19;3.57;;;1.93;;
20649;SDS011;10484;48.736;9.332;2023-04-25T07:00:45;2.20;;;1.97;;
20649;SDS011;10484;48.736;9.332;2023-04-25T07:03:11;4.00;;;2.27;;
20649;SDS011;10484;48.736;9.332;2023-04-25T07:05:36;4.03;;;2.13;;
20649;SDS011;10484;48.736;9.332;2023-04-25T07:08:02;2.80;;;1.50;;
20649;SDS011;10484;48.736;9.332;2023-04-25T07:10:28;2.80;;;2.43;;
20649;SDS011;10484;48.736;9.332;2023-04-25T07:12:53;4.17;;;2.97;;
20649;SDS011;10484;48.736;9.332;2023-04-25T07:15:19;2.13;;;1.90;;
20649;SDS011;10484;48.736;9.332;2023-04-25T07:17:44;6.50;;;1.80;;
20649;SDS011;10484;48.736;9.332;2023-04-25T07:20:10;2.60;;;1.77;;
20649;SDS011;10484;48.736;9.332;2023-04-25T07:22:36;2.10;;;1.83;;
20649;SDS011;10484;48.736;9.332;2023-04-25T07:25:01;4.27;;;2.00;;
20649;SDS011;10484;48.736;9.332;2023-04-25T07:27:29;3.83;;;2.00;;
20649;SDS011;10484;48.736;9.332;2023-04-25T07:29:55;2.00;;;1.60;;
20649;SDS011;10484;48.736;9.332;2023-04-25T07:32:21;3.40;;;2.20;;
20649;SDS011;10484;48.736;9.332;2023-04-25T07:34:46;3.00;;;2.27;;
20649;SDS011;10484;48.736;9.332;2023-04-25T07:37:12;2.53;;;2.33;;
20649;SDS011;10484;48.736;9.332;2023-04-25T07:39:39;2.50;;;1.60;;
20649;SDS011;10484;48.736;9.332;2023-04-25T07:42:04;1.97;;;1.63;;
20649;SDS011;10484;48.736;9.332;2023-04-25T07:44:32;3.97;;;2.47;;
20649;SDS011;10484;48.736;9.332;2023-04-25T07:47:03;3.30;;;2.20;;
20649;SDS011;10484;48.736;9.332;2023-04-25T07:49:31;2.40;;;2.20;;
20649;SDS011;10484;48.736;9.332;2023-04-25T07:51:58;5.87;;;2.00;;
20649;SDS011;10484;48.736;9.332;2023-04-25T07:54:24;2.90;;;2.17;;
20649;SDS011;10484;48.736;9.332;2023-04-25T07:56:50;3.37;;;2.90;;
20649;SDS011;10484;48.736;9.332;2023-04-25T07:59:15;3.00;;;2.47;;
20649;SDS011;10484;48.736;9.332;2023-04-25T08:01:41;3.93;;;2.73;;
20649;SDS011;10484;48.736;9.332;2023-04-25T08:04:06;2.90;;;2.37;;
20649;SDS011;10484;48.736;9.332;2023-04-25T08:06:32;2.97;;;2.77;;
20649;SDS011;10484;48.736;9.332;2023-04-25T08:08:58;3.70;;;2.73;;
20649;SDS011;10484;48.736;9.332;2023-04-25T08:11:23;3.03;;;2.33;;
20649;SDS011;10484;48.736;9.332;2023-04-25T08:13:50;2.90;;;2.40;;
20649;SDS011;10484;48.736;9.332;2023-04-25T08:16:15;3.17;;;2.40;;
20649;SDS011;10484;48.736;9.332;2023-04-25T08:18:41;4.43;;;2.80;;
20649;SDS011;10484;48.736;9.332;2023-04-25T08:21:07;4.53;;;3.27;;
20649;SDS011;10484;48.736;9.332;2023-04-25T08:23:33;3.83;;;3.10;;
20649;SDS011;10484;48.736;9.332;2023-04-25T08:25:59;3.33;;;3.00;;
20649;SDS011;10484;48.736;9.332;2023-04-25T08:28:25;5.20;;;3.30;;
20649;SDS011;10484;48.736;9.332;2023-04-25T08:30:50;4.27;;;2.97;;
20649;SDS011;10484;48.736;9.332;2023-04-25T08:33:16;3.10;;;2.80;;
20649;SDS011;10484;48.736;9.332;2023-04-25T08:35:42;7.00;;;3.90;;
20649;SDS011;10484;48.736;9.332;2023-04-25T08:38:07;5.47;;;3.43;;
20649;SDS011;10484;48.736;9.332;2023-04-25T08:40:35;5.90;;;4.30;;
20649;SDS011;10484;48.736;9.332;2023-04-25T08:43:03;4.87;;;4.00;;
20649;SDS011;10484;48.736;9.332;2023-04-25T08:45:39;4.97;;;3.77;;
20649;SDS011;10484;48.736;9.332;2023-04-25T08:48:11;3.47;;;2.97;;
20649;SDS011;10484;48.736;9.332;2023-04-25T08:50:44;5.30;;;3.87;;
20649;SDS011;10484;48.736;9.332;2023-04-25T08:53:15;4.00;;;3.63;;
20649;SDS011;10484;48.736;9.332;2023-04-25T08:55:43;5.20;;;4.13;;
20649;SDS011;10484;48.736;9.332;2023-04-25T08:58:11;6.50;;;4.37;;
20649;SDS011;10484;48.736;9.332;2023-04-25T09:00:37;5.77;;;3.90;;
20649;SDS011;10484;48.736;9.332;2023-04-25T09:03:03;4.37;;;3.90;;
20649;SDS011;10484;48.736;9.332;2023-04-25T09:05:30;5.83;;;4.67;;
20649;SDS011;10484;48.736;9.332;2023-04-25T09:07:56;4.10;;;3.70;;
20649;SDS011;10484;48.736;9.332;2023-04-25T09:10:23;6.40;;;4.67;;
20649;SDS011;10484;48.736;9.332;2023-04-25T09:13:07;4.80;;;4.30;;
20649;SDS011;10484;48.736;9.332;2023-04-25T09:20:53;6.30;;;5.07;;
20649;SDS011;10484;48.736;9.332;2023-04-25T09:23:38;6.13;;;4.83;;
20649;SDS011;10484;48.736;9.332;2023-04-25T09:26:06;4.60;;;3.47;;
20649;SDS011;10484;48.736;9.332;2023-04-25T09:28:33;7.60;;;4.90;;
20649;SDS011;10484;48.736;9.332;2023-04-25T09:31:00;7.50;;;5.10;;
20649;SDS011;10484;48.736;9.332;2023-04-25T09:33:29;5.50;;;4.40;;
20649;SDS011;10484;48.736;9.332;2023-04-25T09:36:01;4.97;;;4.33;;
20649;SDS011;10484;48.736;9.332;2023-04-25T09:38:29;6.60;;;4.53;;
20649;SDS011;10484;48.736;9.332;2023-04-25T09:40:56;8.03;;;5.73;;
20649;SDS011;10484;48.736;9.332;2023-04-25T09:43:22;8.97;;;5.30;;
20649;SDS011;10484;48.736;9.332;2023-04-25T09:45:49;9.10;;;5.90;;
20649;SDS011;10484;48.736;9.332;2023-04-25T09:48:20;8.60;;;4.83;;
20649;SDS011;10484;48.736;9.332;2023-04-25T09:53:38;5.90;;;4.30;;
20649;SDS011;10484;48.736;9.332;2023-04-25T09:56:08;8.33;;;4.83;;
20649;SDS011;10484;48.736;9.332;2023-04-25T09:58:36;6.47;;;5.10;;
20649;SDS011;10484;48.736;9.332;2023-04-25T10:01:04;6.40;;;4.37;;
20649;SDS011;10484;48.736;9.332;2023-04-25T10:03:32;7.30;;;5.00;;
20649;SDS011;10484;48.736;9.332;2023-04-25T10:05:59;6.57;;;4.73;;
20649;SDS011;10484;48.736;9.332;2023-04-25T10:08:31;7.40;;;5.40;;
20649;SDS011;10484;48.736;9.332;2023-04-25T10:11:01;9.27;;;5.10;;
20649;SDS011;10484;48.736;9.332;2023-04-25T10:13:32;7.53;;;5.50;;
20649;SDS011;10484;48.736;9.332;2023-04-25T10:15:58;8.40;;;4.77;;
20649;SDS011;10484;48.736;9.332;2023-04-25T10:18:26;10.80;;;5.17;;
20649;SDS011;10484;48.736;9.332;2023-04-25T10:21:02;6.60;;;4.73;;
20649;SDS011;10484;48.736;9.332;2023-04-25T10:23:30;6.73;;;4.33;;
20649;SDS011;10484;48.736;9.332;2023-04-25T10:25:56;2.80;;;2.20;;
20649;SDS011;10484;48.736;9.332;2023-04-25T10:28:23;1.63;;;1.50;;
20649;SDS011;10484;48.736;9.332;2023-04-25T10:33:35;4.30;;;1.70;;
20649;SDS011;10484;48.736;9.332;2023-04-25T10:36:14;2.20;;;1.80;;
20649;SDS011;10484;48.736;9.332;2023-04-25T10:38:42;2.40;;;2.20;;
20649;SDS011;10484;48.736;9.332;2023-04-25T10:41:09;8.70;;;2.07;;
20649;SDS011;10484;48.736;9.332;2023-04-25T10:43:39;2.80;;;2.10;;
20649;SDS011;10484;48.736;9.332;2023-04-25T10:46:22;3.80;;;3.00;;
20649;SDS011;10484;48.736;9.332;2023-04-25T10:49:00;2.50;;;2.00;;
20649;SDS011;10484;48.736;9.332;2023-04-25T10:51:33;2.30;;;2.10;;
20649;SDS011;10484;48.736;9.332;2023-04-25T10:54:05;3.97;;;2.27;;
20649;SDS011;10484;48.736;9.332;2023-04-25T10:56:32;2.20;;;2.00;;
20649;SDS011;10484;48.736;9.332;2023-04-25T10:59:06;3.90;;;2.20;;
20649;SDS011;10484;48.736;9.332;2023-04-25T11:01:35;3.20;;;2.07;;
20649;SDS011;10484;48.736;9.332;2023-04-25T11:04:04;2.47;;;2.00;;
20649;SDS011;10484;48.736;9.332;2023-04-25T11:06:46;2.30;;;1.97;;
20649;SDS011;10484;48.736;9.332;2023-04-25T11:09:20;1.53;;;1.43;;
20649;SDS011;10484;48.736;9.332;2023-04-25T11:11:55;3.30;;;1.80;;
20649;SDS011;10484;48.736;9.332;2023-04-25T11:14:23;2.63;;;2.07;;
20649;SDS011;10484;48.736;9.332;2023-04-25T11:16:56;3.67;;;1.60;;
20649;SDS011;10484;48.736;9.332;2023-04-25T11:19:23;1.87;;;1.73;;
20649;SDS011;10484;48.736;9.332;2023-04-25T11:21:49;1.20;;;1.10;;
20649;SDS011;10484;48.736;9.332;2023-04-25T11:24:16;1.83;;;1.60;;
20649;SDS011;10484;48.736;9.332;2023-04-25T11:26:42;1.37;;;1.27;;
20649;SDS011;10484;48.736;9.332;2023-04-25T11:29:08;1.90;;;1.80;;
20649;SDS011;10484;48.736;9.332;2023-04-25T11:31:34;1.87;;;1.77;;
20649;SDS011;10484;48.736;9.332;2023-04-25T11:34:00;1.57;;;1.47;;
20649;SDS011;10484;48.736;9.332;2023-04-25T11:36:26;4.73;;;1.37;;
20649;SDS011;10484;48.736;9.332;2023-04-25T11:38:52;1.73;;;1.63;;
20649;SDS011;10484;48.736;9.332;2023-04-25T11:41:19;1.40;;;1.10;;
20649;SDS011;10484;48.736;9.332;2023-04-25T11:43:45;1.60;;;1.17;;
20649;SDS011;10484;48.736;9.332;2023-04-25T11:46:11;2.50;;;1.33;;
20649;SDS011;10484;48.736;9.332;2023-04-25T11:48:39;1.97;;;1.30;;
20649;SDS011;10484;48.736;9.332;2023-04-25T11:51:06;1.47;;;1.33;;
20649;SDS011;10484;48.736;9.332;2023-04-25T11:53:32;1.13;;;1.03;;
20649;SDS011;10484;48.736;9.332;2023-04-25T11:55:57;1.33;;;1.23;;
20649;SDS011;10484;48.736;9.332;2023-04-25T11:58:23;2.70;;;1.87;;
20649;SDS011;10484;48.736;9.332;2023-04-25T12:00:49;1.90;;;1.57;;
20649;SDS011;10484;48.736;9.332;2023-04-25T12:03:14;2.10;;;1.67;;
20649;SDS011;10484;48.736;9.332;2023-04-25T12:05:40;2.10;;;1.63;;
20649;SDS011;10484;48.736;9.332;2023-04-25T12:08:09;2.10;;;1.90;;
20649;SDS011;10484;48.736;9.332;2023-04-25T12:10:37;1.30;;;1.20;;
20649;SDS011;10484;48.736;9.332;2023-04-25T12:13:17;2.20;;;1.70;;
20649;SDS011;10484;48.736;9.332;2023-04-25T12:15:43;2.10;;;1.50;;
20649;SDS011;10484;48.736;9.332;2023-04-25T12:18:08;1.73;;;1.63;;
20649;SDS011;10484;48.736;9.332;2023-04-25T12:20:34;3.40;;;1.93;;
20649;SDS011;10484;48.736;9.332;2023-04-25T12:23:00;3.23;;;1.73;;
20649;SDS011;10484;48.736;9.332;2023-04-25T12:25:35;3.23;;;2.20;;
20649;SDS011;10484;48.736;9.332;2023-04-25T12:28:13;3.60;;;2.77;;
20649;SDS011;10484;48.736;9.332;2023-04-25T12:30:54;5.23;;;2.33;;
20649;SDS011;10484;48.736;9.332;2023-04-25T12:33:23;1.80;;;1.67;;
20649;SDS011;10484;48.736;9.332;2023-04-25T12:35:51;2.93;;;2.23;;
20649;SDS011;10484;48.736;9.332;2023-04-25T12:38:28;4.90;;;3.50;;
20649;SDS011;10484;48.736;9.332;2023-04-25T12:40:55;3.80;;;2.93;;
20649;SDS011;10484;48.736;9.332;2023-04-25T12:43:21;3.30;;;2.87;;
20649;SDS011;10484;48.736;9.332;2023-04-25T12:45:48;4.87;;;3.40;;
20649;SDS011;10484;48.736;9.332;2023-04-25T12:48:16;4.43;;;3.63;;
20649;SDS011;10484;48.736;9.332;2023-04-25T12:50:42;3.13;;;2.57;;
20649;SDS011;10484;48.736;9.332;2023-04-25T12:53:07;2.90;;;2.50;;
20649;SDS011;10484;48.736;9.332;2023-04-25T12:55:33;3.97;;;3.57;;
20649;SDS011;10484;48.736;9.332;2023-04-25T12:57:59;4.23;;;3.27;;
20649;SDS011;10484;48.736;9.332;2023-04-25T13:00:24;4.97;;;3.97;;
20649;SDS011;10484;48.736;9.332;2023-04-25T13:02:51;5.43;;;4.20;;
20649;SDS011;10484;48.736;9.332;2023-04-25T13:05:17;3.97;;;3.30;;
20649;SDS011;10484;48.736;9.332;2023-04-25T13:07:42;5.93;;;3.87;;
20649;SDS011;10484;48.736;9.332;2023-04-25T13:10:08;5.20;;;4.17;;
20649;SDS011;10484;48.736;9.332;2023-04-25T13:12:33;4.83;;;3.70;;
20649;SDS011;10484;48.736;9.332;2023-04-25T13:14:59;7.97;;;5.17;;
20649;SDS011;10484;48.736;9.332;2023-04-25T13:17:24;5.23;;;4.20;;
20649;SDS011;10484;48.736;9.332;2023-04-25T13:19:50;8.50;;;5.10;;
20649;SDS011;10484;48.736;9.332;2023-04-25T13:22:16;9.67;;;5.67;;
20649;SDS011;10484;48.736;9.332;2023-04-25T13:24:45;8.20;;;5.33;;
20649;SDS011;10484;48.736;9.332;2023-04-25T13:27:11;6.40;;;4.80;;
20649;SDS011;10484;48.736;9.332;2023-04-25T13:29:38;7.67;;;5.67;;
20649;SDS011;10484;48.736;9.332;2023-04-25T13:32:05;7.07;;;4.90;;
20649;SDS011;10484;48.736;9.332;2023-04-25T13:34:31;6.93;;;4.63;;
20649;SDS011;10484;48.736;9.332;2023-04-25T13:36:57;5.47;;;4.20;;
20649;SDS011;10484;48.736;9.332;2023-04-25T13:39:23;7.67;;;4.90;;
20649;SDS011;10484;48.736;9.332;2023-04-25T13:41:48;7.30;;;4.80;;
20649;SDS011;10484;48.736;9.332;2023-04-25T13:44:14;6.10;;;4.90;;
20649;SDS011;10484;48.736;9.332;2023-04-25T13:46:40;7.27;;;5.80;;
20649;SDS011;10484;48.736;9.332;2023-04-25T13:49:05;8.97;;;5.60;;
20649;SDS011;10484;48.736;9.332;2023-04-25T13:51:31;9.77;;;5.60;;
20649;SDS011;10484;48.736;9.332;2023-04-25T13:53:57;9.10;;;4.73;;
20649;SDS011;10484;48.736;9.332;2023-04-25T13:56:23;10.73;;;5.43;;
20649;SDS011;10484;48.736;9.332;2023-04-25T13:58:49;9.40;;;5.60;;
20649;SDS011;10484;48.736;9.332;2023-04-25T14:01:16;7.83;;;5.27;;
20649;SDS011;10484;48.736;9.332;2023-04-25T14:03:42;8.43;;;5.33;;
20649;SDS011;10484;48.736;9.332;2023-04-25T14:06:08;6.63;;;4.80;;
20649;SDS011;10484;48.736;9.332;2023-04-25T14:08:34;6.00;;;5.00;;
20649;SDS011;10484;48.736;9.332;2023-04-25T14:10:59;7.20;;;5.83;;
20649;SDS011;10484;48.736;9.332;2023-04-25T14:13:25;7.43;;;5.20;;
20649;SDS011;10484;48.736;9.332;2023-04-25T14:15:51;9.87;;;5.90;;
20649;SDS011;10484;48.736;9.332;2023-04-25T14:18:17;10.03;;;5.80;;
20649;SDS011;10484;48.736;9.332;2023-04-25T14:20:43;6.50;;;5.03;;
20649;SDS011;10484;48.736;9.332;2023-04-25T14:23:09;9.13;;;5.87;;
20649;SDS011;10484;48.736;9.332;2023-04-25T14:25:35;6.60;;;5.13;;
20649;SDS011;10484;48.736;9.332;2023-04-25T14:28:01;7.90;;;5.77;;
20649;SDS011;10484;48.736;9.332;2023-04-25T14:30:27;9.33;;;6.20;;
20649;SDS011;10484;48.736;9.332;2023-04-25T14:32:53;5.53;;;5.03;;
20649;SDS011;10484;48.736;9.332;2023-04-25T14:35:19;6.47;;;4.93;;
20649;SDS011;10484;48.736;9.332;2023-04-25T14:37:45;8.07;;;5.73;;
20649;SDS011;10484;48.736;9.332;2023-04-25T14:40:11;7.57;;;5.70;;
20649;SDS011;10484;48.736;9.332;2023-04-25T14:42:38;7.47;;;5.03;;
20649;SDS011;10484;48.736;9.332;2023-04-25T14:45:05;7.30;;;5.80;;
20649;SDS011;10484;48.736;9.332;2023-04-25T14:47:32;9.57;;;5.50;;
20649;SDS011;10484;48.736;9.332;2023-04-25T14:49:58;8.90;;;5.80;;
20649;SDS011;10484;48.736;9.332;2023-04-25T14:52:23;9.77;;;5.57;;
20649;SDS011;10484;48.736;9.332;2023-04-25T14:54:50;8.50;;;5.50;;
20649;SDS011;10484;48.736;9.332;2023-04-25T14:57:16;9.20;;;6.00;;